Terminal Aerodrome Forecast
Issued by NWS Duluth, MN

Home | Current Version | Previous Version | Text Only | Print | Product List | Glossary On
Versions: 1 2 3 4 5 6 7 8 9 10 11 12 13 14 15 16 17 18 19 20 21
000
FTUS43 KDLH 291100 RRA
TAFINL
TAF
KINL 291147Z 2912/3012 21014KT P6SM -RA OVC025
      TEMPO 2912/2915 28008KT 2SM -SNRA BKN015
     FM291500 33018G30KT P6SM SCT020 OVC035
     FM300000 30014KT P6SM BKN040=

USA.gov is the U.S. government's official web portal to all federal, state and local government web resources and services.